createdAt,value
2018-10-06T00:01:32.784Z,19.50
2018-10-06T00:04:00.438Z,19.50
2018-10-06T00:06:28.439Z,19.50
2018-10-06T00:08:56.045Z,19.50
2018-10-06T00:11:23.577Z,19.50
2018-10-06T00:13:51.578Z,19.50
2018-10-06T00:16:19.294Z,19.50
2018-10-06T00:18:47.971Z,19.40
2018-10-06T00:21:15.624Z,19.50
2018-10-06T00:23:43.259Z,19.40
2018-10-06T00:26:12.162Z,19.40
2018-10-06T00:28:39.861Z,19.40
2018-10-06T00:31:07.441Z,19.40
2018-10-06T00:33:35.208Z,19.50
2018-10-06T00:36:02.764Z,19.50
2018-10-06T00:38:30.395Z,19.50
2018-10-06T00:40:58.011Z,19.50
2018-10-06T00:43:25.559Z,19.50
2018-10-06T00:45:53.156Z,19.50
2018-10-06T00:48:20.805Z,19.40
2018-10-06T00:50:48.642Z,19.40
2018-10-06T00:53:16.438Z,19.40
2018-10-06T00:55:44.141Z,19.40
2018-10-06T00:58:11.902Z,19.40
2018-10-06T01:00:39.621Z,19.40
2018-10-06T01:03:07.292Z,19.40
2018-10-06T01:05:35.015Z,19.50
2018-10-06T01:08:02.557Z,19.40
2018-10-06T01:10:30.212Z,19.40
2018-10-06T01:12:57.859Z,19.40
2018-10-06T01:15:25.412Z,19.40
2018-10-06T01:17:52.967Z,19.40
2018-10-06T01:20:21.349Z,19.40
2018-10-06T01:22:49.140Z,19.40
2018-10-06T01:25:16.927Z,19.40
2018-10-06T01:27:44.989Z,19.40
2018-10-06T01:30:12.621Z,19.40
2018-10-06T01:32:40.251Z,19.40
2018-10-06T01:35:07.997Z,19.40
2018-10-06T01:37:35.690Z,19.40
2018-10-06T01:40:03.844Z,19.40
2018-10-06T01:42:31.464Z,19.40
2018-10-06T01:44:58.997Z,19.40
2018-10-06T01:47:26.532Z,19.50
2018-10-06T01:49:54.322Z,19.50
2018-10-06T01:52:21.852Z,19.40
2018-10-06T01:54:49.411Z,19.40
2018-10-06T01:57:17.109Z,19.40
2018-10-06T01:59:44.970Z,19.40
2018-10-06T02:02:12.613Z,19.40
2018-10-06T02:04:40.240Z,19.40
2018-10-06T02:07:07.780Z,19.40
2018-10-06T02:09:35.728Z,19.40
2018-10-06T02:12:03.292Z,19.40
2018-10-06T02:14:30.876Z,19.40
2018-10-06T02:16:58.442Z,19.40
2018-10-06T02:19:26.008Z,19.40
2018-10-06T02:21:53.613Z,19.40
2018-10-06T02:24:21.300Z,19.40
2018-10-06T02:26:48.843Z,19.40
2018-10-06T02:29:16.519Z,19.40
2018-10-06T02:31:44.231Z,19.40
2018-10-06T02:34:11.964Z,19.40
2018-10-06T02:36:39.613Z,19.40
2018-10-06T02:39:07.368Z,19.40
2018-10-06T02:41:35.021Z,19.40
2018-10-06T02:44:02.564Z,19.40
2018-10-06T02:46:30.165Z,19.40
2018-10-06T02:48:57.692Z,19.40
2018-10-06T02:51:25.245Z,19.40
2018-10-06T02:53:52.797Z,19.40
2018-10-06T02:56:20.411Z,19.40
2018-10-06T02:58:48.042Z,19.40
2018-10-06T03:01:15.807Z,19.40
2018-10-06T03:03:43.504Z,19.40
2018-10-06T03:06:11.414Z,19.40
2018-10-06T03:08:39.069Z,19.40
2018-10-06T03:11:06.787Z,19.40
2018-10-06T03:13:34.659Z,19.40
2018-10-06T03:16:02.194Z,19.40
2018-10-06T03:18:29.752Z,19.40
2018-10-06T03:20:57.325Z,19.40
2018-10-06T03:23:24.896Z,19.40
2018-10-06T03:25:52.536Z,19.40
2018-10-06T03:28:20.318Z,19.40
2018-10-06T03:30:48.051Z,19.40
2018-10-06T03:33:15.791Z,19.40
2018-10-06T03:35:43.539Z,19.40
2018-10-06T03:38:11.344Z,19.40
2018-10-06T03:40:38.868Z,19.40
2018-10-06T03:43:06.505Z,19.40
2018-10-06T03:45:34.373Z,19.40
2018-10-06T03:48:01.953Z,19.40
2018-10-06T03:50:29.485Z,19.40
2018-10-06T03:52:57.019Z,19.40
2018-10-06T03:55:24.578Z,19.40
2018-10-06T03:57:52.130Z,19.40
2018-10-06T04:00:19.683Z,19.40
2018-10-06T04:02:47.365Z,19.40
2018-10-06T04:05:15.053Z,19.40
2018-10-06T04:07:42.786Z,19.40
2018-10-06T04:10:10.585Z,19.40
2018-10-06T04:12:38.237Z,19.40
2018-10-06T04:15:06.237Z,19.40
2018-10-06T04:17:33.837Z,19.40
2018-10-06T04:20:01.428Z,19.40
2018-10-06T04:22:28.999Z,19.40
2018-10-06T04:24:56.595Z,19.40
2018-10-06T04:27:24.222Z,19.40
2018-10-06T04:29:51.797Z,19.40
2018-10-06T04:32:19.390Z,19.40
2018-10-06T04:34:47.095Z,19.40
2018-10-06T04:37:14.933Z,19.40
2018-10-06T04:39:42.816Z,19.40
2018-10-06T04:42:10.500Z,19.40
2018-10-06T04:44:38.066Z,19.40
2018-10-06T04:47:05.593Z,19.40
2018-10-06T04:49:33.208Z,19.40
2018-10-06T04:52:00.813Z,19.40
2018-10-06T04:54:28.336Z,19.40
2018-10-06T04:56:55.890Z,19.30
2018-10-06T04:59:23.455Z,19.30
2018-10-06T05:01:51.230Z,19.30
2018-10-06T05:04:18.770Z,19.30
2018-10-06T05:06:46.393Z,19.40
2018-10-06T05:09:14.043Z,19.40
2018-10-06T05:11:41.821Z,19.30
2018-10-06T05:14:09.362Z,19.40
2018-10-06T05:16:36.944Z,19.40
2018-10-06T05:19:04.533Z,19.40
2018-10-06T05:21:32.144Z,19.40
2018-10-06T05:23:59.694Z,19.40
2018-10-06T05:26:27.267Z,19.40
2018-10-06T05:28:55.961Z,19.40
2018-10-06T05:31:23.614Z,19.40
2018-10-06T05:33:51.381Z,19.40
2018-10-06T05:36:19.090Z,19.40
2018-10-06T05:38:46.806Z,19.40
2018-10-06T05:41:14.573Z,19.40
2018-10-06T05:43:48.350Z,19.40
2018-10-06T05:46:16.372Z,19.30
2018-10-06T05:48:43.968Z,19.30
2018-10-06T05:51:11.951Z,19.30
2018-10-06T05:53:39.522Z,19.30
2018-10-06T05:56:07.159Z,19.30
2018-10-06T05:58:34.795Z,19.30
2018-10-06T06:01:02.342Z,19.30
2018-10-06T06:03:30.248Z,19.30
2018-10-06T06:05:57.794Z,19.30
2018-10-06T06:08:25.852Z,19.30
2018-10-06T06:10:53.383Z,19.30
2018-10-06T06:13:21.455Z,19.30
2018-10-06T06:15:49.147Z,19.30
2018-10-06T06:18:16.763Z,19.30
2018-10-06T06:20:44.505Z,19.40
2018-10-06T06:23:12.324Z,19.40
2018-10-06T06:25:40.075Z,19.40
2018-10-06T06:28:07.610Z,19.40
2018-10-06T06:30:35.172Z,19.40
2018-10-06T06:33:02.772Z,19.40
2018-10-06T06:35:30.354Z,19.50
2018-10-06T06:37:58.352Z,19.50
2018-10-06T06:40:25.982Z,19.50
2018-10-06T06:42:53.562Z,19.50
2018-10-06T06:45:21.190Z,19.50
2018-10-06T06:47:48.735Z,19.50
2018-10-06T06:50:17.513Z,19.50
2018-10-06T06:52:45.228Z,19.50
2018-10-06T06:55:12.964Z,19.50
2018-10-06T06:57:40.694Z,19.50
2018-10-06T07:00:08.312Z,19.50
2018-10-06T07:02:35.843Z,19.60
2018-10-06T07:05:03.474Z,19.60
2018-10-06T07:07:31.042Z,19.60
2018-10-06T07:09:58.573Z,19.60
2018-10-06T07:12:26.839Z,19.60
2018-10-06T07:14:54.393Z,19.60
2018-10-06T07:17:21.924Z,19.60
2018-10-06T07:19:49.521Z,19.60
2018-10-06T07:22:17.288Z,19.60
2018-10-06T07:24:45.260Z,19.50
2018-10-06T07:27:13.876Z,19.40
2018-10-06T07:29:41.710Z,19.40
2018-10-06T07:32:09.341Z,19.30
2018-10-06T07:34:37.035Z,19.30
2018-10-06T07:37:04.572Z,19.30
2018-10-06T07:39:32.208Z,19.20
2018-10-06T07:41:59.782Z,19.20
2018-10-06T07:44:27.350Z,19.20
2018-10-06T07:46:55.352Z,19.20
2018-10-06T07:49:22.908Z,19.20
2018-10-06T07:51:50.514Z,19.10
2018-10-06T07:54:18.102Z,19.20
2018-10-06T07:56:45.779Z,19.20
2018-10-06T07:59:14.483Z,19.10
2018-10-06T08:01:42.305Z,19.10
2018-10-06T08:04:09.921Z,19.20
2018-10-06T08:06:37.504Z,19.30
2018-10-06T08:09:06.151Z,19.40
2018-10-06T08:11:33.726Z,19.40
2018-10-06T08:14:01.306Z,19.40
2018-10-06T08:16:28.867Z,19.40
2018-10-06T08:18:56.464Z,19.40
2018-10-06T08:21:24.040Z,19.50
2018-10-06T08:23:51.652Z,19.50
2018-10-06T08:26:19.727Z,19.50
2018-10-06T08:28:47.420Z,19.50
2018-10-06T08:31:15.306Z,19.50
2018-10-06T08:33:43.045Z,19.60
2018-10-06T08:36:10.750Z,19.60
2018-10-06T08:38:38.557Z,19.60
2018-10-06T08:41:06.240Z,19.50
2018-10-06T08:43:33.934Z,19.60
2018-10-06T08:46:01.690Z,19.60
2018-10-06T08:48:30.151Z,19.60
2018-10-06T08:50:58.740Z,19.60
2018-10-06T08:53:26.308Z,19.60
2018-10-06T08:55:54.016Z,19.60
2018-10-06T08:58:21.492Z,19.60
2018-10-06T09:00:49.091Z,19.60
2018-10-06T09:03:17.056Z,19.60
2018-10-06T09:05:44.716Z,19.60
2018-10-06T09:08:12.481Z,19.60
2018-10-06T09:10:40.233Z,19.60
2018-10-06T09:13:07.955Z,19.60
2018-10-06T09:15:36.219Z,19.60
2018-10-06T09:18:03.776Z,19.60
2018-10-06T09:20:31.382Z,19.60
2018-10-06T09:22:59.002Z,19.60
2018-10-06T09:25:26.624Z,19.50
2018-10-06T09:27:55.267Z,19.60
2018-10-06T09:30:22.796Z,19.60
2018-10-06T09:32:50.363Z,19.60
2018-10-06T09:35:17.945Z,19.60
2018-10-06T09:37:45.605Z,19.60
2018-10-06T09:40:13.221Z,19.60
2018-10-06T09:42:40.883Z,19.60
2018-10-06T09:45:08.526Z,19.60
2018-10-06T09:47:36.146Z,19.60
2018-10-06T09:50:03.794Z,19.60
2018-10-06T09:52:31.466Z,19.60
2018-10-06T09:54:59.013Z,19.60
2018-10-06T09:57:26.596Z,19.60
2018-10-06T09:59:54.311Z,19.60
2018-10-06T10:02:27.204Z,19.60
2018-10-06T10:04:59.082Z,19.60
2018-10-06T10:07:26.635Z,19.60
2018-10-06T10:09:54.284Z,19.60
2018-10-06T10:12:21.846Z,19.60
2018-10-06T10:14:49.379Z,19.60
2018-10-06T10:17:17.127Z,19.60
2018-10-06T10:19:44.561Z,19.60
2018-10-06T10:22:12.421Z,19.60
2018-10-06T10:24:39.937Z,19.60
2018-10-06T10:27:07.703Z,19.60
2018-10-06T10:29:35.441Z,19.60
2018-10-06T10:32:03.006Z,19.60
2018-10-06T10:34:30.730Z,19.60
2018-10-06T10:36:58.249Z,19.60
2018-10-06T10:39:25.902Z,19.60
2018-10-06T10:41:53.360Z,19.60
2018-10-06T10:44:20.950Z,19.60
2018-10-06T10:46:48.657Z,19.60
2018-10-06T10:49:16.383Z,19.60
2018-10-06T10:51:43.998Z,19.60
2018-10-06T10:54:11.789Z,19.60
2018-10-06T10:56:39.606Z,19.60
2018-10-06T10:59:07.288Z,19.50
2018-10-06T11:01:35.001Z,19.60
2018-10-06T11:04:02.742Z,19.60
2018-10-06T11:06:30.292Z,19.60
2018-10-06T11:08:57.928Z,19.50
2018-10-06T11:11:25.590Z,19.60
2018-10-06T11:13:53.040Z,19.60
2018-10-06T11:16:20.576Z,19.60
2018-10-06T11:18:48.123Z,19.60
2018-10-06T11:21:15.897Z,19.60
2018-10-06T11:23:43.707Z,19.60
2018-10-06T11:26:11.472Z,19.60
2018-10-06T11:28:39.187Z,19.60
2018-10-06T11:31:06.926Z,19.60
2018-10-06T11:33:34.525Z,19.60
2018-10-06T11:36:02.097Z,19.60
2018-10-06T11:38:29.810Z,19.60
2018-10-06T11:40:57.400Z,19.60
2018-10-06T11:43:25.167Z,19.60
2018-10-06T11:45:52.750Z,19.60
2018-10-06T11:48:20.328Z,19.60
2018-10-06T11:50:47.968Z,19.60
2018-10-06T11:53:15.557Z,19.60
2018-10-06T11:55:43.224Z,19.60
2018-10-06T11:58:10.910Z,19.60
2018-10-06T12:00:38.726Z,19.60
2018-10-06T12:03:06.390Z,19.60
2018-10-06T12:05:34.028Z,19.60
2018-10-06T12:08:01.528Z,19.60
2018-10-06T12:10:29.292Z,19.60
2018-10-06T12:12:56.909Z,19.60
2018-10-06T12:15:24.455Z,19.60
2018-10-06T12:17:51.997Z,19.60
2018-10-06T12:20:19.704Z,19.60
2018-10-06T12:22:47.377Z,19.60
2018-10-06T12:25:14.933Z,19.60
2018-10-06T12:27:42.587Z,19.50
2018-10-06T12:30:10.329Z,19.60
2018-10-06T12:32:38.017Z,19.60
2018-10-06T12:35:05.763Z,19.60
2018-10-06T12:37:33.290Z,19.60
2018-10-06T12:40:00.840Z,19.60
2018-10-06T12:42:28.395Z,19.60
2018-10-06T12:44:55.959Z,19.60
2018-10-06T12:47:23.564Z,19.60
2018-10-06T12:49:51.180Z,19.60
2018-10-06T12:52:18.844Z,19.60
2018-10-06T12:54:46.615Z,19.60
2018-10-06T12:57:14.346Z,19.60
2018-10-06T12:59:42.113Z,19.60
2018-10-06T13:02:09.981Z,19.60
2018-10-06T13:04:37.921Z,19.60
2018-10-06T13:07:05.808Z,19.60
2018-10-06T13:09:33.481Z,19.60
2018-10-06T13:12:01.172Z,19.60
2018-10-06T13:14:28.697Z,19.60
2018-10-06T13:16:57.045Z,19.60
2018-10-06T13:19:24.636Z,19.60
2018-10-06T13:21:52.215Z,19.60
2018-10-06T13:24:19.860Z,19.60
2018-10-06T13:26:47.624Z,19.60
2018-10-06T13:29:15.444Z,19.60
2018-10-06T13:31:43.172Z,19.60
2018-10-06T13:34:10.867Z,19.60
2018-10-06T13:36:38.547Z,19.60
2018-10-06T13:39:07.338Z,19.60
2018-10-06T13:41:35.010Z,19.60
2018-10-06T13:44:02.624Z,19.60
2018-10-06T13:46:30.259Z,19.60
2018-10-06T13:48:57.839Z,19.70
2018-10-06T13:51:25.420Z,19.70
2018-10-06T13:53:53.014Z,19.70
2018-10-06T13:56:20.655Z,19.70
2018-10-06T13:58:48.321Z,19.70
2018-10-06T14:01:15.954Z,19.60
2018-10-06T14:03:43.610Z,19.60
2018-10-06T14:06:11.333Z,19.60
2018-10-06T14:08:39.092Z,19.70
2018-10-06T14:11:06.932Z,19.60
2018-10-06T14:13:34.540Z,19.60
2018-10-06T14:16:02.101Z,19.60
2018-10-06T14:18:29.653Z,19.60
2018-10-06T14:20:57.246Z,19.60
2018-10-06T14:23:24.864Z,19.60
2018-10-06T14:25:52.465Z,19.60
2018-10-06T14:28:20.005Z,19.60
2018-10-06T14:30:47.627Z,19.60
2018-10-06T14:33:15.292Z,19.70
2018-10-06T14:35:43.087Z,19.60
2018-10-06T14:38:10.828Z,19.60
2018-10-06T14:40:38.978Z,19.60
2018-10-06T14:43:06.804Z,19.60
2018-10-06T14:45:34.349Z,19.60
2018-10-06T14:48:01.885Z,19.60
2018-10-06T14:50:29.478Z,19.60
2018-10-06T14:52:57.094Z,19.60
2018-10-06T14:55:24.627Z,19.60
2018-10-06T14:57:52.303Z,19.60
2018-10-06T15:00:19.871Z,19.60
2018-10-06T15:02:47.461Z,19.60
2018-10-06T15:05:15.084Z,19.60
2018-10-06T15:07:42.841Z,19.60
2018-10-06T15:10:10.594Z,19.60
2018-10-06T15:12:38.229Z,19.60
2018-10-06T15:15:05.820Z,19.60
2018-10-06T15:17:33.422Z,19.60
2018-10-06T15:20:01.029Z,19.60
2018-10-06T15:22:28.575Z,19.60
2018-10-06T15:24:56.176Z,19.60
2018-10-06T15:27:23.972Z,19.60
2018-10-06T15:29:51.649Z,19.60
2018-10-06T15:32:19.219Z,19.60
2018-10-06T15:34:46.988Z,19.60
2018-10-06T15:37:14.852Z,19.60
2018-10-06T15:39:42.463Z,19.60
2018-10-06T15:42:10.212Z,19.60
2018-10-06T15:44:37.940Z,19.60
2018-10-06T15:47:06.734Z,19.60
2018-10-06T15:49:34.382Z,19.60
2018-10-06T15:52:02.584Z,19.60
2018-10-06T15:54:30.366Z,19.60
2018-10-06T15:56:58.008Z,19.60
2018-10-06T15:59:25.558Z,19.60
2018-10-06T16:01:53.106Z,19.60
2018-10-06T16:04:21.466Z,19.60
2018-10-06T16:06:49.045Z,19.60
2018-10-06T16:09:16.704Z,19.60
2018-10-06T16:11:44.288Z,19.60
2018-10-06T16:14:12.178Z,19.60
2018-10-06T16:16:39.898Z,19.60
2018-10-06T16:19:07.564Z,19.60
2018-10-06T16:21:35.282Z,19.60
2018-10-06T16:24:03.576Z,19.60
2018-10-06T16:26:31.137Z,19.60
2018-10-06T16:28:58.656Z,19.60
2018-10-06T16:31:26.462Z,19.60
2018-10-06T16:33:54.106Z,19.60
2018-10-06T16:36:21.967Z,19.60
2018-10-06T16:38:49.677Z,19.60
2018-10-06T16:41:17.340Z,19.60
2018-10-06T16:43:44.956Z,19.60
2018-10-06T16:46:12.615Z,19.60
2018-10-06T16:48:40.399Z,19.60
2018-10-06T16:51:08.267Z,19.60
2018-10-06T16:53:36.428Z,19.60
2018-10-06T16:56:04.010Z,19.60
2018-10-06T16:58:31.610Z,19.60
2018-10-06T17:00:59.203Z,19.60
2018-10-06T17:03:26.796Z,19.50
2018-10-06T17:05:54.404Z,19.60
2018-10-06T17:08:22.048Z,19.60
2018-10-06T17:10:49.916Z,19.60
2018-10-06T17:13:17.810Z,19.60
2018-10-06T17:15:45.716Z,19.60
2018-10-06T17:18:13.582Z,19.60
2018-10-06T17:20:41.277Z,19.60
2018-10-06T17:23:09.016Z,19.60
2018-10-06T17:25:36.613Z,19.70
2018-10-06T17:28:04.192Z,19.70
2018-10-06T17:30:31.756Z,19.70
2018-10-06T17:32:59.337Z,19.70
2018-10-06T17:35:26.892Z,19.70
2018-10-06T17:37:54.421Z,19.70
2018-10-06T17:40:22.035Z,19.70
2018-10-06T17:42:49.886Z,19.70
2018-10-06T17:45:17.844Z,19.70
2018-10-06T17:47:45.568Z,19.70
2018-10-06T17:50:13.785Z,19.70
2018-10-06T17:52:41.315Z,19.70
2018-10-06T17:55:08.901Z,19.70
2018-10-06T17:57:36.811Z,19.70
2018-10-06T18:00:04.512Z,19.70
2018-10-06T18:02:32.049Z,19.70
2018-10-06T18:04:59.808Z,19.70
2018-10-06T18:07:27.163Z,19.70
2018-10-06T18:09:54.912Z,19.70
2018-10-06T18:12:22.591Z,19.80
2018-10-06T18:14:50.250Z,19.70
2018-10-06T18:17:18.229Z,19.70
2018-10-06T18:19:45.910Z,19.80
2018-10-06T18:22:14.313Z,19.80
2018-10-06T18:24:41.998Z,19.80
2018-10-06T18:27:09.779Z,19.80
2018-10-06T18:29:37.509Z,19.80
2018-10-06T18:32:05.014Z,19.80
2018-10-06T18:34:32.963Z,19.80
2018-10-06T18:37:00.596Z,19.80
2018-10-06T18:39:31.329Z,19.80
2018-10-06T18:41:58.933Z,19.80
2018-10-06T18:44:31.419Z,19.80
2018-10-06T18:46:59.296Z,19.80
2018-10-06T18:49:27.963Z,19.80
2018-10-06T18:51:56.390Z,19.80
2018-10-06T18:54:24.090Z,19.80
2018-10-06T18:56:51.687Z,19.80
2018-10-06T18:59:19.356Z,19.80
2018-10-06T19:01:47.096Z,19.80
2018-10-06T19:04:15.105Z,19.80
2018-10-06T19:06:42.781Z,19.80
2018-10-06T19:09:11.408Z,19.80
2018-10-06T19:11:40.985Z,19.80
2018-10-06T19:14:08.580Z,19.80
2018-10-06T19:16:37.237Z,19.80
2018-10-06T19:19:05.612Z,19.80
2018-10-06T19:21:33.277Z,19.80
2018-10-06T19:24:01.003Z,19.80
2018-10-06T19:26:28.643Z,19.70
2018-10-06T19:28:56.650Z,19.80
2018-10-06T19:31:24.904Z,19.80
2018-10-06T19:33:52.467Z,19.80
2018-10-06T19:36:20.134Z,19.80
2018-10-06T19:38:47.828Z,19.80
2018-10-06T19:41:15.593Z,19.80
2018-10-06T19:43:44.076Z,19.80
2018-10-06T19:46:12.470Z,19.80
2018-10-06T19:48:41.660Z,19.80
2018-10-06T19:51:09.354Z,19.80
2018-10-06T19:53:37.063Z,19.80
2018-10-06T19:56:06.047Z,19.80
2018-10-06T19:58:36.481Z,19.70
2018-10-06T20:01:09.458Z,19.80
2018-10-06T20:03:38.194Z,19.80
2018-10-06T20:06:05.874Z,19.80
2018-10-06T20:08:35.944Z,19.70
2018-10-06T20:11:03.534Z,19.80
2018-10-06T20:13:31.241Z,19.80
2018-10-06T20:15:58.932Z,19.80
2018-10-06T20:18:26.476Z,19.80
2018-10-06T20:20:54.089Z,19.80
2018-10-06T20:23:21.661Z,19.80
2018-10-06T20:25:49.237Z,19.80
2018-10-06T20:28:17.166Z,19.90
2018-10-06T20:30:44.832Z,19.90
2018-10-06T20:33:12.445Z,19.90
2018-10-06T20:35:40.085Z,19.90
2018-10-06T20:38:07.814Z,19.90
2018-10-06T20:40:36.157Z,19.90
2018-10-06T20:43:03.704Z,19.90
2018-10-06T20:45:31.339Z,20.00
2018-10-06T20:47:58.982Z,19.90
2018-10-06T20:50:26.995Z,20.00
2018-10-06T20:52:54.566Z,20.00
2018-10-06T20:55:22.121Z,20.00
2018-10-06T20:57:49.676Z,19.90
2018-10-06T21:00:17.407Z,20.00
2018-10-06T21:02:44.984Z,20.00
2018-10-06T21:05:12.570Z,20.00
2018-10-06T21:07:40.202Z,20.00
2018-10-06T21:10:07.906Z,20.00
2018-10-06T21:12:35.684Z,20.00
2018-10-06T21:15:03.310Z,20.00
2018-10-06T21:17:30.872Z,20.00
2018-10-06T21:19:58.486Z,20.00
2018-10-06T21:22:26.059Z,20.00
2018-10-06T21:24:53.622Z,20.00
2018-10-06T21:27:21.210Z,20.00
2018-10-06T21:29:48.787Z,20.00
2018-10-06T21:32:16.413Z,20.00
2018-10-06T21:34:44.079Z,20.00
2018-10-06T21:37:11.843Z,20.00
2018-10-06T21:39:39.652Z,20.00
2018-10-06T21:42:08.358Z,20.00
2018-10-06T21:44:37.157Z,20.00
2018-10-06T21:47:07.020Z,20.00
2018-10-06T21:49:34.612Z,20.00
2018-10-06T21:52:02.559Z,20.00
2018-10-06T21:54:30.379Z,20.00
2018-10-06T21:56:57.925Z,20.00
2018-10-06T21:59:25.526Z,20.10
2018-10-06T22:01:53.095Z,20.10
2018-10-06T22:04:20.638Z,20.10
2018-10-06T22:06:48.266Z,20.10
2018-10-06T22:09:15.831Z,20.10
2018-10-06T22:11:43.511Z,20.10
2018-10-06T22:14:11.189Z,20.10
2018-10-06T22:16:39.049Z,20.10
2018-10-06T22:19:06.823Z,20.10
2018-10-06T22:21:34.573Z,20.00
2018-10-06T22:24:02.165Z,20.10
2018-10-06T22:26:29.876Z,20.00
2018-10-06T22:28:57.664Z,20.00
2018-10-06T22:31:25.364Z,20.00
2018-10-06T22:33:53.005Z,20.10
2018-10-06T22:36:21.013Z,20.00
2018-10-06T22:38:48.601Z,20.00
2018-10-06T22:41:16.225Z,20.00
2018-10-06T22:43:43.937Z,20.00
2018-10-06T22:46:11.484Z,20.00
2018-10-06T22:48:39.050Z,20.00
2018-10-06T22:51:06.651Z,20.00
2018-10-06T22:53:34.197Z,20.10
2018-10-06T22:56:01.785Z,20.00
2018-10-06T22:58:29.429Z,20.00
2018-10-06T23:00:57.064Z,20.00
2018-10-06T23:03:24.824Z,20.00
2018-10-06T23:05:52.422Z,20.00
2018-10-06T23:08:20.022Z,20.00
2018-10-06T23:10:47.592Z,20.00
2018-10-06T23:13:15.323Z,20.00
2018-10-06T23:15:42.975Z,20.00
2018-10-06T23:18:10.571Z,20.00
2018-10-06T23:20:38.148Z,20.00
2018-10-06T23:23:05.863Z,20.00
2018-10-06T23:25:33.456Z,20.00
2018-10-06T23:28:01.043Z,20.00
2018-10-06T23:30:28.746Z,20.00
2018-10-06T23:32:56.460Z,20.00
2018-10-06T23:35:24.210Z,20.00
2018-10-06T23:37:51.985Z,20.00
2018-10-06T23:40:19.604Z,20.00
2018-10-06T23:42:47.194Z,20.00
2018-10-06T23:45:14.747Z,20.00
2018-10-06T23:47:42.636Z,20.10
2018-10-06T23:50:11.062Z,20.00
2018-10-06T23:52:38.645Z,20.00
2018-10-06T23:55:06.191Z,20.00
2018-10-06T23:57:33.860Z,20.10
